Alburnett, IA

12:12 AM CST on December 21, 2014 (GMT -0600)
KIACENTR2 | Change Station
CLOSE
Current Station
Personal Weather Station
Location: Central City, IA
Elevation: 930 ft
Nearby Weather Stations
Active Advisory: Dense Fog Advisory

Elev 930 ft 42.20 °N, 91.65 °W | Updated 13 seconds ago

Fog
Fog
35.1 °F
Feels Like 29 °F
N
7.6
Wind Variable Wind from SSE
Gusts 9.8 mph

Today
High -- | Low -- °F
--% Chance of Precip.
Yesterday
High -- | Low -- °F
Precip. -- in
7:31 AM 4:37 PM
Waning Crescent, 1% visible
Pressure 30.16 in
Visibility 0.2 miles
Clouds
Windchill 29 °F
Dew Point 26 °F
Humidity 69%
Rainfall -999.00 in
Snow Depth Not available.
UV 0.0 out of 12
Pollen .10 out of 12
Air Quality Not available.
Flu Activity Not available.
METAR KCID 210552Z AUTO 15006KT 1/4SM FG VV001 01/01 A3013 RMK AO2 SLP212 I6000 T00060006 10006 20000 400061017 56009 $

More Conditions Fewer Conditions

Pressure 30.16 in
Visibility 0.2 miles
Clouds
Windchill 29 °F
Dew Point 26 °F
Humidity 69%
Rainfall -999.00 in
Snow Depth Not available.
UV 0.0 out of 12
Pollen .10 out of 12
Air Quality Not available.
Flu Activity Not available.
METAR KCID 210552Z AUTO 15006KT 1/4SM FG VV001 01/01 A3013 RMK AO2 SLP212 I6000 T00060006 10006 20000 400061017 56009 $

More Conditions Fewer Conditions

10-Day Weather Forecast

Almanac

Astronomy

Dec. 21, 2014 Rise Set
Actual Time
Civil Twilight
Nautical Twilight
Astronomical Twilight
Moon
Length of Visible Light
Length of Day
Tomorrow will be .
, % of the Moon is Illuminated

Today's Extremes

State Highs State Lows

Community

WunderPhotos

Upload Photos

1,779,360 photos uploaded!

WunderBlogs® & News

Nearby

Air Quality

  Air Quality AQ Index Pollutant
Not available.

Snow Depth

Station Depth Elevation

Earthquake Activity

City Distance Mag. Time & Date
Minimum magnitude displayed is 2.5.

Coastal Water Temperatures

Place Temperature

Nearby Weather Stations